Time;durP1;ratioP1;P1;durP2;ratioP2;P2;SDS_P1;SDS_P2;PMS_P1;PMS_P2;Temp;Humidity;BMP_temperature;BMP_pressure;BME280_temperature;BME280_humidity;BME280_pressure;Samples;Min_cycle;Max_cycle;Signal;HPM_P1;HPM_P2
2021/12/29 00:00:18;;;;;;;36.20;10.75;;;5.20;99.90;;;;;;4937318;29;20047;-79
2021/12/29 00:02:43;;;;;;;44.97;12.02;;;5.30;99.90;;;;;;4937437;29;20048;-79
2021/12/29 00:05:10;;;;;;;47.72;12.23;;;5.30;99.90;;;;;;4920315;29;20463;-79
2021/12/29 00:07:36;;;;;;;50.45;12.77;;;5.30;99.90;;;;;;4936976;29;20579;-79
2021/12/29 00:10:05;;;;;;;45.28;12.48;;;5.40;99.90;;;;;;4919882;29;20054;-79
2021/12/29 00:12:34;;;;;;;52.25;12.70;;;5.40;99.90;;;;;;4920272;29;20079;-79
2021/12/29 00:15:00;;;;;;;46.10;11.20;;;5.50;99.90;;;;;;4920236;29;20051;-79
2021/12/29 00:17:26;;;;;;;38.97;13.20;;;5.50;99.90;;;;;;4920032;29;20058;-79
2021/12/29 00:19:52;;;;;;;48.72;13.57;;;5.50;99.90;;;;;;4919821;29;20049;-79
2021/12/29 00:22:18;;;;;;;42.17;13.00;;;5.50;99.90;;;;;;4919711;29;20102;-79
2021/12/29 00:24:45;;;;;;;53.33;12.95;;;5.40;99.90;;;;;;4936779;29;20086;-79
2021/12/29 00:27:10;;;;;;;48.08;14.40;;;5.40;99.90;;;;;;4919796;29;20056;-79
2021/12/29 00:29:36;;;;;;;34.28;11.20;;;5.40;99.90;;;;;;4936849;29;20042;-79
2021/12/29 00:32:02;;;;;;;28.27;10.27;;;5.50;99.90;;;;;;4919741;29;20400;-79
2021/12/29 00:34:28;;;;;;;29.60;11.05;;;5.60;99.90;;;;;;4919514;29;20043;-79
2021/12/29 00:36:53;;;;;;;36.58;12.15;;;5.80;99.90;;;;;;4919619;29;20051;-79
2021/12/29 00:39:19;;;;;;;36.70;12.27;;;5.80;99.90;;;;;;4919569;29;20139;-79
2021/12/29 00:41:45;;;;;;;33.22;11.75;;;5.80;99.90;;;;;;4919737;29;20054;-79
2021/12/29 00:44:10;;;;;;;34.13;12.48;;;5.80;99.90;;;;;;4919571;29;20051;-79
2021/12/29 00:46:37;;;;;;;28.98;11.05;;;5.80;99.90;;;;;;4919562;29;20051;-79
2021/12/29 00:49:03;;;;;;;25.77;9.90;;;5.80;99.90;;;;;;4936403;29;20390;-79
2021/12/29 00:51:29;;;;;;;31.08;11.77;;;5.80;99.90;;;;;;4919608;29;20052;-79
2021/12/29 00:53:55;;;;;;;38.60;12.43;;;5.80;99.90;;;;;;4919730;29;20095;-83
2021/12/29 00:56:21;;;;;;;37.30;12.98;;;5.80;99.90;;;;;;4919710;29;20044;-85
2021/12/29 00:58:47;;;;;;;31.15;12.00;;;5.80;99.90;;;;;;4919467;29;20380;-85
2021/12/29 01:01:12;;;;;;;31.80;11.52;;;5.80;99.90;;;;;;4919433;29;20049;-85
2021/12/29 01:03:38;;;;;;;26.95;11.10;;;5.90;99.90;;;;;;4919455;29;20062;-87
2021/12/29 01:06:05;;;;;;;28.23;10.38;;;5.90;99.90;;;;;;4936389;29;20054;-86
2021/12/29 01:08:31;;;;;;;28.05;11.15;;;6.00;99.90;;;;;;4936416;29;20048;-83
2021/12/29 01:10:57;;;;;;;24.95;10.20;;;6.10;99.90;;;;;;4936418;29;20051;-84
2021/12/29 01:13:30;;;;;;;26.52;9.82;;;6.10;99.90;;;;;;4919311;29;20044;-83
2021/12/29 01:16:09;;;;;;;36.78;11.35;;;6.10;99.90;;;;;;4919620;29;20044;-83
2021/12/29 01:18:38;;;;;;;35.08;13.85;;;6.10;99.90;;;;;;4919009;29;20055;-83
2021/12/29 01:21:05;;;;;;;41.45;12.85;;;6.10;99.90;;;;;;4921192;29;20404;-83
2021/12/29 01:23:31;;;;;;;39.25;12.82;;;6.00;99.90;;;;;;4923360;29;20060;-83
2021/12/29 01:25:57;;;;;;;39.65;12.23;;;6.00;99.90;;;;;;4940140;29;20570;-83
2021/12/29 01:28:23;;;;;;;34.42;10.98;;;5.90;99.90;;;;;;4923030;29;20043;-83
2021/12/29 01:30:49;;;;;;;28.52;9.57;;;5.90;99.90;;;;;;4922844;29;20046;-83
2021/12/29 01:33:14;;;;;;;31.63;10.32;;;5.80;99.90;;;;;;4922777;29;20047;-83
2021/12/29 01:35:41;;;;;;;41.22;9.77;;;5.80;99.90;;;;;;4922781;29;20487;-83
2021/12/29 01:38:08;;;;;;;60.08;12.05;;;5.80;99.90;;;;;;4922892;29;20048;-83
2021/12/29 01:40:35;;;;;;;41.78;9.90;;;5.80;99.90;;;;;;4923200;29;20110;-83
2021/12/29 01:43:06;;;;;;;43.10;10.25;;;5.80;99.90;;;;;;4923046;29;20082;-83
2021/12/29 01:45:32;;;;;;;47.40;10.80;;;5.80;99.90;;;;;;4922480;29;20047;-83
2021/12/29 01:48:00;;;;;;;57.33;11.88;;;5.80;99.90;;;;;;4922510;29;20130;-84
2021/12/29 01:50:26;;;;;;;110.22;13.70;;;5.70;99.90;;;;;;4939697;29;20051;-82
2021/12/29 01:52:57;;;;;;;179.18;19.38;;;5.70;99.90;;;;;;4922826;29;20095;-82
2021/12/29 01:55:27;;;;;;;99.18;15.45;;;5.70;99.90;;;;;;4922883;29;20052;-82
2021/12/29 01:57:54;;;;;;;84.43;13.57;;;5.60;99.90;;;;;;4922407;29;20079;-81
2021/12/29 02:00:23;;;;;;;72.68;12.93;;;5.60;99.90;;;;;;4922344;29;20051;-82
2021/12/29 02:02:49;;;;;;;53.38;11.52;;;5.60;99.90;;;;;;4939428;29;20046;-82
2021/12/29 02:05:16;;;;;;;98.75;12.02;;;5.60;99.90;;;;;;4922451;29;20047;-84
2021/12/29 02:07:42;;;;;;;70.63;11.13;;;5.60;99.90;;;;;;4922560;29;20396;-83
2021/12/29 02:10:11;;;;;;;50.72;7.90;;;5.60;99.90;;;;;;4922526;29;20052;-83
2021/12/29 02:12:37;;;;;;;40.63;9.32;;;5.70;99.90;;;;;;4922379;29;20075;-82
2021/12/29 02:15:05;;;;;;;52.00;10.27;;;5.90;99.90;;;;;;4922340;29;20484;-83
2021/12/29 02:17:31;;;;;;;60.22;11.05;;;6.00;99.90;;;;;;4921833;29;20143;-83
2021/12/29 02:20:01;;;;;;;48.58;11.38;;;6.00;99.90;;;;;;4939111;29;20126;-83
2021/12/29 02:22:36;;;;;;;49.40;11.15;;;6.10;99.90;;;;;;4922311;29;20051;-82
2021/12/29 02:27:50;;;;;;;52.53;12.88;;;6.10;99.90;;;;;;4922028;29;20057;-82
2021/12/29 02:30:20;;;;;;;48.15;11.90;;;6.10;99.90;;;;;;4922273;29;20051;-83
2021/12/29 02:32:46;;;;;;;39.05;11.30;;;6.10;99.90;;;;;;4921965;29;20468;-77
2021/12/29 02:35:15;;;;;;;46.20;11.73;;;6.00;99.90;;;;;;4921640;29;20055;-77
2021/12/29 02:37:41;;;;;;;43.40;12.05;;;6.10;99.90;;;;;;4921574;29;20407;-77
2021/12/29 02:40:08;;;;;;;44.22;11.13;;;6.10;99.90;;;;;;4938686;29;20051;-77
2021/12/29 02:42:40;;;;;;;40.13;11.77;;;6.10;99.90;;;;;;4921693;29;20483;-78
2021/12/29 02:45:08;;;;;;;42.28;11.10;;;6.00;99.90;;;;;;4938538;29;20040;-77
2021/12/29 02:47:34;;;;;;;46.75;12.23;;;6.10;99.90;;;;;;4921823;29;20106;-77
2021/12/29 02:50:00;;;;;;;50.05;12.85;;;6.00;99.90;;;;;;4921429;29;20047;-78
2021/12/29 02:52:25;;;;;;;46.53;11.43;;;6.10;99.90;;;;;;4921707;29;20502;-77
2021/12/29 02:54:54;;;;;;;40.25;11.55;;;6.10;99.90;;;;;;4938644;29;20094;-78
2021/12/29 02:57:20;;;;;;;38.38;10.90;;;6.10;99.90;;;;;;4921420;29;20098;-77
2021/12/29 02:59:46;;;;;;;45.38;11.95;;;6.10;99.90;;;;;;4938512;29;20048;-77
2021/12/29 03:02:12;;;;;;;42.10;11.20;;;6.10;99.90;;;;;;4921446;29;20442;-77
2021/12/29 03:04:38;;;;;;;40.05;11.18;;;6.10;99.90;;;;;;4921106;29;20107;-77
2021/12/29 03:07:04;;;;;;;45.22;12.65;;;6.10;99.90;;;;;;4938393;29;20058;-77
2021/12/29 03:09:30;;;;;;;38.00;11.60;;;6.10;99.90;;;;;;4920991;29;20399;-77
2021/12/29 03:11:56;;;;;;;36.47;11.57;;;6.10;99.90;;;;;;4938317;29;20048;-77
2021/12/29 03:14:23;;;;;;;41.80;11.90;;;6.00;99.90;;;;;;4921193;29;20044;-77
2021/12/29 03:16:49;;;;;;;46.60;11.55;;;6.00;99.90;;;;;;4920845;29;20067;-77
2021/12/29 03:19:14;;;;;;;50.28;11.02;;;6.00;99.90;;;;;;4920697;29;20044;-77
2021/12/29 03:21:40;;;;;;;53.65;11.30;;;5.90;99.90;;;;;;4920956;29;20403;-77
2021/12/29 03:24:06;;;;;;;41.60;9.63;;;5.90;99.90;;;;;;4920841;29;20043;-77
2021/12/29 03:26:32;;;;;;;43.90;10.13;;;6.00;99.90;;;;;;4920681;29;20056;-77
2021/12/29 03:28:59;;;;;;;54.97;11.20;;;6.00;99.90;;;;;;4920884;29;20051;-77
2021/12/29 03:31:26;;;;;;;48.83;11.80;;;6.00;99.90;;;;;;4921069;29;20492;-77
2021/12/29 03:33:53;;;;;;;54.50;10.45;;;6.00;99.90;;;;;;4920926;29;20047;-77
2021/12/29 03:36:19;;;;;;;36.72;8.77;;;6.00;99.90;;;;;;4920972;29;20047;-77
2021/12/29 03:38:46;;;;;;;36.05;9.95;;;6.00;99.90;;;;;;4920683;29;20043;-77
2021/12/29 03:41:14;;;;;;;45.92;9.20;;;6.00;99.90;;;;;;4920397;29;20098;-77
2021/12/29 03:43:42;;;;;;;36.55;10.00;;;6.00;99.90;;;;;;4919974;29;20048;-77
2021/12/29 03:46:09;;;;;;;34.58;10.27;;;6.00;99.90;;;;;;4920372;29;20059;-77
2021/12/29 03:48:36;;;;;;;31.20;9.38;;;6.00;99.90;;;;;;4920374;29;20054;-77
2021/12/29 03:51:03;;;;;;;30.63;9.93;;;6.00;99.90;;;;;;4920418;29;20055;-77
2021/12/29 03:53:29;;;;;;;38.40;9.27;;;6.10;99.90;;;;;;4920688;29;20043;-77
2021/12/29 03:55:56;;;;;;;31.10;9.57;;;6.00;99.90;;;;;;4920195;29;20391;-77
2021/12/29 03:58:23;;;;;;;34.38;10.70;;;6.10;99.90;;;;;;4920228;29;20432;-77
2021/12/29 04:00:52;;;;;;;38.55;12.02;;;6.10;99.90;;;;;;4920134;29;20048;-77
2021/12/29 04:03:18;;;;;;;32.10;11.20;;;6.10;99.90;;;;;;4920143;29;20055;-77
2021/12/29 04:05:44;;;;;;;40.92;11.02;;;6.10;99.90;;;;;;4920042;29;20488;-77
2021/12/29 04:08:10;;;;;;;42.70;11.95;;;6.20;99.90;;;;;;4920161;29;20043;-77
2021/12/29 04:10:36;;;;;;;40.42;12.43;;;6.20;99.90;;;;;;4920130;29;20102;-77
2021/12/29 04:13:02;;;;;;;37.17;11.73;;;6.30;99.90;;;;;;4920787;29;20488;-77
2021/12/29 04:15:30;;;;;;;41.67;12.23;;;6.30;99.90;;;;;;4937103;29;20055;-77
2021/12/29 04:17:58;;;;;;;39.40;11.60;;;6.20;99.90;;;;;;4919815;29;20116;-77
2021/12/29 04:23:13;;;;;;;35.05;10.98;;;6.10;99.90;;;;;;4919866;29;20059;-77
2021/12/29 04:25:40;;;;;;;38.05;10.95;;;6.10;99.90;;;;;;4919799;29;20070;-77
2021/12/29 04:28:13;;;;;;;37.55;11.00;;;6.10;99.90;;;;;;4919740;29;20187;-77
2021/12/29 04:30:39;;;;;;;39.33;11.50;;;6.10;99.90;;;;;;4920161;29;20056;-77
2021/12/29 04:33:05;;;;;;;38.83;11.15;;;6.10;99.90;;;;;;4936897;29;20046;-77
2021/12/29 04:35:31;;;;;;;34.97;11.35;;;6.20;99.90;;;;;;4919722;29;20051;-77
2021/12/29 04:37:56;;;;;;;45.60;11.60;;;6.30;99.90;;;;;;4919694;29;20039;-77
2021/12/29 04:40:22;;;;;;;42.30;12.30;;;6.30;99.90;;;;;;4919508;29;20048;-77
2021/12/29 04:42:48;;;;;;;41.38;12.57;;;6.30;99.90;;;;;;4919518;29;20055;-77
2021/12/29 04:45:15;;;;;;;37.00;11.43;;;6.30;99.90;;;;;;4919524;29;20052;-77
2021/12/29 04:47:44;;;;;;;38.97;11.80;;;6.40;99.90;;;;;;4919816;29;20127;-77
2021/12/29 04:50:25;;;;;;;39.33;11.30;;;6.40;99.90;;;;;;4919796;29;20058;-77
2021/12/29 04:52:58;;;;;;;48.58;12.00;;;6.40;99.90;;;;;;4919641;29;20043;-77
2021/12/29 04:55:28;;;;;;;48.58;12.27;;;6.40;99.90;;;;;;4918506;29;20043;-77
2021/12/29 04:57:55;;;;;;;44.05;12.48;;;6.30;99.90;;;;;;4937089;29;20039;-77
2021/12/29 05:00:24;;;;;;;39.95;12.05;;;6.20;99.90;;;;;;4919458;29;20078;-77
2021/12/29 05:02:51;;;;;;;40.20;12.32;;;6.20;99.90;;;;;;4936394;29;20046;-77
2021/12/29 05:05:40;;;;;;;43.05;12.20;;;6.10;99.90;;;;;;4919355;29;20090;-77
2021/12/29 05:08:26;;;;;;;43.78;12.15;;;6.10;99.90;;;;;;4919630;29;20059;-77
2021/12/29 05:11:13;;;;;;;35.22;10.43;;;6.10;99.90;;;;;;4919570;29;20601;-77
2021/12/29 05:13:42;;;;;;;33.17;9.93;;;6.10;99.90;;;;;;4919225;29;20058;-77
2021/12/29 05:16:08;;;;;;;32.38;9.73;;;6.10;99.90;;;;;;4919216;29;20052;-77
2021/12/29 05:18:36;;;;;;;40.67;10.23;;;6.00;99.90;;;;;;4918996;29;20055;-77
2021/12/29 05:21:04;;;;;;;28.95;9.23;;;6.00;99.90;;;;;;4919472;29;20043;-77
2021/12/29 05:23:30;;;;;;;26.17;8.88;;;6.00;99.90;;;;;;4919200;29;20121;-77
2021/12/29 05:25:56;;;;;;;37.20;9.15;;;6.00;99.90;;;;;;4919191;29;20515;-77
2021/12/29 05:28:24;;;;;;;61.47;10.68;;;6.00;99.90;;;;;;4919163;29;20048;-77
2021/12/29 05:30:51;;;;;;;29.83;9.27;;;6.00;99.90;;;;;;4918953;29;20496;-77
2021/12/29 05:33:17;;;;;;;33.38;9.85;;;6.00;99.90;;;;;;4919104;29;20048;-77
2021/12/29 05:35:43;;;;;;;38.00;9.98;;;6.00;99.90;;;;;;4919310;29;20099;-77
2021/12/29 05:38:09;;;;;;;35.05;9.82;;;6.00;99.90;;;;;;4919345;29;20051;-77
2021/12/29 05:40:36;;;;;;;31.05;8.95;;;6.10;99.90;;;;;;4919168;29;20055;-77
2021/12/29 05:43:02;;;;;;;30.40;9.30;;;6.10;99.90;;;;;;4919192;29;20048;-77
2021/12/29 05:45:28;;;;;;;38.45;9.25;;;6.10;99.90;;;;;;4918984;29;20078;-77
2021/12/29 05:47:58;;;;;;;39.28;9.50;;;6.10;99.90;;;;;;4936001;29;20043;-77
2021/12/29 05:50:26;;;;;;;35.38;9.70;;;6.10;99.90;;;;;;4919039;29;20127;-77
2021/12/29 05:52:53;;;;;;;37.00;9.15;;;6.10;99.90;;;;;;4918844;29;20044;-77
2021/12/29 05:55:19;;;;;;;32.67;8.63;;;6.10;99.90;;;;;;4918789;29;20048;-77
2021/12/29 05:57:45;;;;;;;40.80;9.73;;;6.10;99.90;;;;;;4919441;29;20047;-77
2021/12/29 06:00:13;;;;;;;36.38;9.88;;;6.10;99.90;;;;;;4918846;29;20154;-77
2021/12/29 06:02:39;;;;;;;35.17;9.52;;;6.10;99.90;;;;;;4919053;29;20064;-77
2021/12/29 06:05:06;;;;;;;41.55;9.82;;;6.10;99.90;;;;;;4918940;29;20183;-77
2021/12/29 06:07:33;;;;;;;34.45;8.70;;;6.10;99.90;;;;;;4938341;29;20056;-77
2021/12/29 06:10:00;;;;;;;52.67;10.35;;;6.00;99.90;;;;;;4939339;29;20038;-77
2021/12/29 06:12:25;;;;;;;45.50;10.20;;;6.00;99.90;;;;;;4939386;29;20063;-77
2021/12/29 06:14:51;;;;;;;52.88;10.23;;;6.00;99.90;;;;;;4922139;29;20444;-77
2021/12/29 06:17:18;;;;;;;51.13;11.20;;;6.00;99.90;;;;;;4921871;29;20130;-77
2021/12/29 06:19:44;;;;;;;54.50;13.10;;;6.00;99.90;;;;;;4922266;29;20060;-77
2021/12/29 06:22:11;;;;;;;44.92;10.30;;;6.00;99.90;;;;;;4922308;29;20054;-77
2021/12/29 06:24:41;;;;;;;89.97;12.90;;;6.00;99.90;;;;;;4921805;29;20491;-77
2021/12/29 06:27:10;;;;;;;34.72;10.88;;;6.00;99.90;;;;;;4922180;29;20090;-77
2021/12/29 06:29:36;;;;;;;42.10;10.43;;;5.90;99.90;;;;;;4921919;29;20040;-77
2021/12/29 06:32:03;;;;;;;44.63;11.73;;;5.90;99.90;;;;;;4921915;29;20059;-77
2021/12/29 06:34:29;;;;;;;43.22;11.70;;;5.90;99.90;;;;;;4922158;29;20488;-77
2021/12/29 06:36:56;;;;;;;40.85;11.43;;;6.00;99.90;;;;;;4922154;29;20484;-77
2021/12/29 06:39:22;;;;;;;39.97;12.02;;;5.90;99.90;;;;;;4921742;29;20050;-77
2021/12/29 06:41:47;;;;;;;38.80;11.93;;;5.90;99.90;;;;;;4921714;29;20127;-77
2021/12/29 06:44:13;;;;;;;71.45;13.88;;;5.90;99.90;;;;;;4938837;29;20050;-77
2021/12/29 06:46:39;;;;;;;59.47;13.32;;;5.90;99.90;;;;;;4921757;29;20066;-77
2021/12/29 06:49:05;;;;;;;45.35;12.48;;;5.90;99.90;;;;;;4921806;29;20043;-77
2021/12/29 06:51:31;;;;;;;44.63;13.30;;;5.90;99.90;;;;;;4921458;29;20542;-77
2021/12/29 06:53:56;;;;;;;47.80;12.88;;;5.90;99.90;;;;;;4921394;29;20043;-77
2021/12/29 06:56:22;;;;;;;52.22;14.00;;;5.90;99.90;;;;;;4921434;29;20472;-77
2021/12/29 06:58:47;;;;;;;60.53;14.23;;;5.90;99.90;;;;;;4921477;29;20087;-77
2021/12/29 07:01:16;;;;;;;44.20;12.90;;;5.90;99.90;;;;;;4938511;29;20044;-77
2021/12/29 07:03:42;;;;;;;144.82;20.42;;;5.90;99.90;;;;;;4921357;29;20079;-77
2021/12/29 07:06:08;;;;;;;63.83;16.25;;;5.90;99.90;;;;;;4921095;29;20481;-77
2021/12/29 07:08:34;;;;;;;64.70;13.95;;;5.90;99.90;;;;;;4921185;29;20047;-77
2021/12/29 07:11:00;;;;;;;66.25;14.30;;;5.90;99.90;;;;;;4921416;29;20103;-77
2021/12/29 07:13:25;;;;;;;65.47;14.45;;;5.90;99.90;;;;;;4921198;29;20044;-77
2021/12/29 07:15:51;;;;;;;100.32;17.38;;;5.90;99.90;;;;;;4921420;29;20048;-77
2021/12/29 07:18:17;;;;;;;107.80;17.08;;;5.90;99.90;;;;;;4920028;29;20460;-77
2021/12/29 07:20:44;;;;;;;33.25;12.05;;;5.90;99.90;;;;;;4920821;29;20130;-77
2021/12/29 07:23:10;;;;;;;161.10;18.63;;;5.90;99.90;;;;;;4921123;29;20502;-77
2021/12/29 07:25:36;;;;;;;108.35;17.20;;;5.90;99.90;;;;;;4920962;29;20062;-77
2021/12/29 07:28:02;;;;;;;111.70;17.05;;;5.90;99.90;;;;;;4921177;29;20126;-77
2021/12/29 07:30:27;;;;;;;52.70;12.00;;;5.90;99.90;;;;;;4920866;29;20047;-77
2021/12/29 07:32:53;;;;;;;68.95;12.98;;;5.90;99.90;;;;;;4920840;29;20043;-77
2021/12/29 07:35:19;;;;;;;56.67;12.25;;;5.90;99.90;;;;;;4920905;29;20059;-77
2021/12/29 07:37:45;;;;;;;203.85;22.10;;;5.90;99.90;;;;;;4937659;29;20460;-77
2021/12/29 07:40:11;;;;;;;90.82;15.27;;;5.90;99.90;;;;;;4920582;29;20044;-77
2021/12/29 07:42:38;;;;;;;47.95;12.25;;;5.90;99.90;;;;;;4920589;29;20047;-77
2021/12/29 07:45:07;;;;;;;142.23;18.23;;;5.90;99.90;;;;;;4920677;29;20134;-77
2021/12/29 07:47:34;;;;;;;173.10;19.77;;;5.90;99.90;;;;;;4920812;29;20385;-77
2021/12/29 07:50:00;;;;;;;81.85;14.15;;;5.90;99.90;;;;;;4920592;29;20535;-77
2021/12/29 07:52:25;;;;;;;136.27;17.30;;;5.90;99.90;;;;;;4920263;29;20130;-77
2021/12/29 07:54:51;;;;;;;76.68;13.00;;;5.90;99.90;;;;;;4920255;29;20103;-77
2021/12/29 07:57:17;;;;;;;60.90;11.48;;;5.90;99.90;;;;;;4920024;29;20118;-77
2021/12/29 07:59:42;;;;;;;76.45;13.18;;;5.90;99.90;;;;;;4920034;29;20040;-77
2021/12/29 08:02:14;;;;;;;59.30;11.32;;;6.00;99.90;;;;;;4920370;29;20131;-77
2021/12/29 08:04:40;;;;;;;127.32;16.13;;;5.90;99.90;;;;;;4936783;29;20067;-77
2021/12/29 08:07:06;;;;;;;60.95;10.80;;;6.00;99.90;;;;;;4936593;29;20054;-77
2021/12/29 08:09:32;;;;;;;103.10;15.05;;;6.00;99.90;;;;;;4919320;29;20047;-77
2021/12/29 08:11:57;;;;;;;37.72;9.77;;;6.00;99.90;;;;;;4920100;29;20073;-77
2021/12/29 08:14:23;;;;;;;137.68;18.17;;;6.00;99.90;;;;;;4919936;29;20392;-77
2021/12/29 08:16:49;;;;;;;48.30;10.15;;;6.00;99.90;;;;;;4919688;29;20083;-77
2021/12/29 08:19:16;;;;;;;134.48;16.50;;;6.00;99.90;;;;;;4919650;29;20055;-77
2021/12/29 08:21:42;;;;;;;153.20;18.27;;;6.00;99.90;;;;;;4919486;29;20051;-76
2021/12/29 08:24:07;;;;;;;66.20;12.88;;;6.00;99.90;;;;;;4929909;29;20067;-76
2021/12/29 08:26:34;;;;;;;99.90;13.70;;;6.00;99.90;;;;;;4919497;29;20496;-76
2021/12/29 08:29:01;;;;;;;72.03;12.18;;;6.10;99.90;;;;;;4919161;29;20518;-77
2021/12/29 08:31:27;;;;;;;120.75;16.10;;;6.10;99.90;;;;;;4936391;29;20491;-76
2021/12/29 08:33:54;;;;;;;115.57;15.00;;;6.10;99.90;;;;;;4919552;29;20082;-76
2021/12/29 08:36:20;;;;;;;61.03;12.90;;;6.10;99.90;;;;;;4919322;29;20102;-76
2021/12/29 08:38:46;;;;;;;42.88;10.90;;;6.10;99.90;;;;;;4936301;29;20051;-77
2021/12/29 08:41:12;;;;;;;66.82;12.55;;;6.10;99.90;;;;;;4919266;29;20139;-77
2021/12/29 08:43:38;;;;;;;165.57;17.15;;;6.10;99.90;;;;;;4919348;29;20138;-76
2021/12/29 08:46:04;;;;;;;129.55;17.17;;;6.10;99.90;;;;;;4936149;29;20040;-77
2021/12/29 08:48:30;;;;;;;72.38;13.73;;;6.10;99.90;;;;;;4919165;29;20376;-78
2021/12/29 08:50:59;;;;;;;129.98;15.68;;;6.20;99.90;;;;;;4919159;29;20098;-77
2021/12/29 08:53:26;;;;;;;117.35;15.20;;;6.20;99.90;;;;;;4919286;29;20051;-76
2021/12/29 08:55:55;;;;;;;66.93;11.82;;;6.20;99.90;;;;;;4919116;29;20051;-77
2021/12/29 08:58:24;;;;;;;71.30;10.80;;;6.20;99.90;;;;;;4919106;29;20138;-76
2021/12/29 09:00:52;;;;;;;42.40;9.98;;;6.30;99.90;;;;;;4935981;29;20047;-76
2021/12/29 09:03:18;;;;;;;71.45;10.95;;;6.30;99.90;;;;;;4918953;29;20054;-76
2021/12/29 09:05:44;;;;;;;63.30;10.90;;;6.30;99.90;;;;;;4918887;29;20048;-76
2021/12/29 09:08:09;;;;;;;46.15;8.90;;;6.30;99.90;;;;;;4919194;29;20391;-76
2021/12/29 09:10:36;;;;;;;44.88;9.40;;;6.30;99.90;;;;;;4918682;29;20395;-76
2021/12/29 09:13:03;;;;;;;97.55;12.50;;;6.30;99.90;;;;;;4935801;29;20054;-76
2021/12/29 09:15:28;;;;;;;65.72;11.02;;;6.30;99.90;;;;;;4945842;29;20102;-78
2021/12/29 09:17:54;;;;;;;43.58;9.77;;;6.40;99.90;;;;;;4918934;29;20453;-77
2021/12/29 09:20:31;;;;;;;131.70;15.32;;;6.30;99.90;;;;;;4935835;29;20496;-77
2021/12/29 09:23:07;;;;;;;140.23;13.65;;;6.40;99.90;;;;;;4918821;29;20058;-75
2021/12/29 09:25:33;;;;;;;152.32;15.18;;;6.40;99.90;;;;;;4914242;29;20507;-76
2021/12/29 09:27:59;;;;;;;90.50;11.32;;;6.40;99.90;;;;;;4921342;29;20090;-76
2021/12/29 09:30:28;;;;;;;116.43;13.30;;;6.40;99.90;;;;;;4944312;29;20044;-76
2021/12/29 09:32:54;;;;;;;128.10;12.73;;;6.40;99.90;;;;;;4918701;29;20499;-76
2021/12/29 09:35:21;;;;;;;76.03;11.05;;;6.40;99.90;;;;;;4918799;29;20106;-76
2021/12/29 09:37:47;;;;;;;194.80;16.45;;;6.40;99.90;;;;;;4918848;29;20067;-76
2021/12/29 09:40:15;;;;;;;134.57;13.48;;;6.40;99.90;;;;;;4918554;29;20047;-76
2021/12/29 09:42:41;;;;;;;111.35;13.43;;;6.40;99.90;;;;;;4938486;29;20047;-76
2021/12/29 09:45:09;;;;;;;53.65;10.00;;;6.40;99.90;;;;;;4922375;29;20571;-76
2021/12/29 09:47:36;;;;;;;74.47;11.57;;;6.40;99.90;;;;;;4922177;29;20544;-76
2021/12/29 09:50:10;;;;;;;65.97;11.20;;;6.40;99.90;;;;;;4922249;29;20393;-76
2021/12/29 09:52:37;;;;;;;75.85;11.77;;;6.40;99.90;;;;;;4922357;29;20050;-76
2021/12/29 09:55:09;;;;;;;51.67;9.80;;;6.50;99.90;;;;;;4922150;29;20051;-76
2021/12/29 09:57:37;;;;;;;50.67;10.50;;;6.50;99.90;;;;;;4922548;28;20488;-76
2021/12/29 10:00:12;;;;;;;63.08;11.98;;;6.50;99.90;;;;;;4932383;29;20052;-76
2021/12/29 10:02:37;;;;;;;63.30;10.35;;;6.60;99.90;;;;;;4921942;29;20403;-76
2021/12/29 10:05:04;;;;;;;56.95;11.85;;;6.60;99.90;;;;;;4921884;29;20044;-76
2021/12/29 10:07:30;;;;;;;49.80;10.23;;;6.60;99.90;;;;;;4924882;28;20051;-76
2021/12/29 10:09:55;;;;;;;35.53;9.70;;;6.60;99.90;;;;;;4934419;29;20389;-76
2021/12/29 10:12:22;;;;;;;35.08;9.20;;;6.60;99.90;;;;;;4922086;29;20495;-76
2021/12/29 10:14:59;;;;;;;32.20;9.82;;;6.60;99.90;;;;;;4922045;29;20047;-76
2021/12/29 10:17:29;;;;;;;40.55;9.40;;;6.60;99.90;;;;;;4921466;29;20570;-75
2021/12/29 10:20:11;;;;;;;34.40;11.18;;;6.60;99.90;;;;;;4922066;29;20060;-75
2021/12/29 10:22:37;;;;;;;32.58;9.35;;;6.60;99.90;;;;;;4921890;29;20094;-75
2021/12/29 10:25:17;;;;;;;26.98;8.65;;;6.60;99.90;;;;;;4921643;29;20091;-76
2021/12/29 10:27:43;;;;;;;35.30;10.10;;;6.70;99.90;;;;;;4922036;28;20052;-76
2021/12/29 10:30:27;;;;;;;33.53;9.68;;;6.70;99.90;;;;;;4930291;29;20062;-78
2021/12/29 10:32:59;;;;;;;31.25;9.85;;;6.70;99.90;;;;;;4940829;29;20117;-78
2021/12/29 10:35:33;;;;;;;47.50;10.25;;;6.70;99.90;;;;;;4940765;29;20086;-77
2021/12/29 10:38:20;;;;;;;34.92;9.85;;;6.70;99.90;;;;;;4956132;28;20115;-78
2021/12/29 10:40:48;;;;;;;39.88;10.43;;;6.80;99.90;;;;;;4938878;29;20066;-77
2021/12/29 10:43:15;;;;;;;29.50;9.38;;;6.80;99.90;;;;;;4940328;29;20134;-78
2021/12/29 10:45:43;;;;;;;29.02;10.07;;;6.80;99.90;;;;;;4940314;29;20055;-80
2021/12/29 10:48:21;;;;;;;32.78;10.73;;;6.80;99.90;;;;;;4940194;29;20523;-78
2021/12/29 10:51:03;;;;;;;24.17;9.32;;;6.80;99.90;;;;;;4940215;29;20055;-78
2021/12/29 10:53:32;;;;;;;32.72;9.27;;;6.80;99.90;;;;;;4957483;28;20051;-79
2021/12/29 10:55:58;;;;;;;31.05;9.10;;;6.80;99.90;;;;;;4940069;29;20098;-78
2021/12/29 10:58:26;;;;;;;30.10;9.55;;;6.70;99.90;;;;;;4935875;29;20055;-78
2021/12/29 11:01:06;;;;;;;25.05;8.35;;;6.80;99.90;;;;;;4929264;29;20079;-78
2021/12/29 11:03:34;;;;;;;26.40;7.78;;;6.80;99.90;;;;;;4920666;29;20082;-78
2021/12/29 11:06:02;;;;;;;34.53;9.30;;;6.80;99.90;;;;;;4920860;29;20055;-77
2021/12/29 11:08:31;;;;;;;28.73;8.07;;;6.70;99.90;;;;;;4923273;29;20051;-78
2021/12/29 11:11:07;;;;;;;26.52;8.32;;;6.80;99.90;;;;;;4929232;29;20047;-79
2021/12/29 11:13:33;;;;;;;23.98;7.82;;;6.80;99.90;;;;;;4920961;29;20048;-80
2021/12/29 11:16:00;;;;;;;29.92;7.50;;;6.80;99.90;;;;;;4920727;29;20135;-78
2021/12/29 11:18:48;;;;;;;22.63;8.50;;;6.80;99.90;;;;;;4922605;28;20043;-78
2021/12/29 11:21:32;;;;;;;30.25;10.63;;;6.70;99.90;;;;;;4936140;28;20062;-78
2021/12/29 11:24:20;;;;;;;28.23;8.43;;;6.80;99.90;;;;;;4959013;28;20050;-78
2021/12/29 11:26:46;;;;;;;23.48;9.27;;;6.70;99.90;;;;;;4958733;28;20065;-78
2021/12/29 11:29:16;;;;;;;25.05;7.80;;;6.80;99.90;;;;;;4961029;28;20114;-78
2021/12/29 11:31:48;;;;;;;33.13;9.95;;;6.80;99.90;;;;;;4927926;29;20054;-78
2021/12/29 11:34:25;;;;;;;24.75;7.43;;;6.80;99.90;;;;;;4920358;29;20047;-78
2021/12/29 11:37:06;;;;;;;29.90;9.02;;;6.80;99.90;;;;;;4937418;29;20134;-78
2021/12/29 11:39:35;;;;;;;26.73;8.98;;;6.90;99.90;;;;;;4920412;29;20453;-78
2021/12/29 11:42:01;;;;;;;34.45;11.32;;;6.80;99.90;;;;;;4920218;29;20047;-78
2021/12/29 11:44:27;;;;;;;26.70;9.45;;;6.90;99.90;;;;;;4920338;29;20051;-77
2021/12/29 11:46:54;;;;;;;28.92;10.77;;;6.90;99.90;;;;;;4920021;29;20539;-78
2021/12/29 11:49:20;;;;;;;27.05;9.82;;;7.00;99.90;;;;;;4919983;29;20059;-77
2021/12/29 11:52:03;;;;;;;29.00;11.90;;;7.00;99.90;;;;;;4937145;29;20055;-77
2021/12/29 11:54:42;;;;;;;26.65;8.13;;;7.00;99.90;;;;;;4920300;29;20071;-77
2021/12/29 11:57:23;;;;;;;27.42;8.13;;;7.00;99.90;;;;;;4919998;29;20053;-86
2021/12/29 11:59:49;;;;;;;30.90;8.82;;;7.00;99.90;;;;;;4919919;29;20483;-85
2021/12/29 12:02:25;;;;;;;25.50;9.38;;;7.00;99.90;;;;;;4919910;29;20488;-84
2021/12/29 12:05:08;;;;;;;33.35;11.55;;;7.00;99.90;;;;;;4919339;29;20099;-84
2021/12/29 12:07:34;;;;;;;33.50;13.93;;;7.00;99.90;;;;;;4920134;29;20062;-85
2021/12/29 12:10:07;;;;;;;37.10;16.83;;;7.00;99.90;;;;;;4919908;29;20122;-85
2021/12/29 12:12:35;;;;;;;67.32;36.60;;;7.00;99.90;;;;;;4937009;29;20039;-87
2021/12/29 12:15:03;;;;;;;62.20;36.60;;;7.00;99.90;;;;;;4919922;29;20057;-87
2021/12/29 12:17:29;;;;;;;43.03;16.13;;;7.00;99.90;;;;;;4936814;29;20063;-85
2021/12/29 12:20:09;;;;;;;52.63;26.65;;;7.00;99.90;;;;;;4919592;29;20074;-85
2021/12/29 12:22:50;;;;;;;46.17;24.95;;;7.10;99.90;;;;;;4919414;29;20051;-86
2021/12/29 12:25:35;;;;;;;55.15;22.50;;;7.00;99.90;;;;;;4936687;29;20047;-85
2021/12/29 12:28:03;;;;;;;43.85;21.05;;;7.10;99.90;;;;;;4919650;29;20134;-84
2021/12/29 12:30:51;;;;;;;34.47;11.38;;;7.10;99.90;;;;;;4919363;29;20051;-83
2021/12/29 12:33:25;;;;;;;30.65;11.93;;;7.10;99.90;;;;;;4919342;29;20111;-79
2021/12/29 12:35:52;;;;;;;26.20;10.25;;;7.10;99.90;;;;;;4936547;29;20051;-84
2021/12/29 12:38:27;;;;;;;24.45;10.98;;;7.10;99.90;;;;;;4919203;29;20551;-86
2021/12/29 12:41:06;;;;;;;26.63;9.23;;;7.20;99.90;;;;;;4919636;29;20044;-84
2021/12/29 12:43:35;;;;;;;27.15;8.68;;;7.10;99.90;;;;;;4919362;29;20111;-82
2021/12/29 12:46:01;;;;;;;29.75;8.77;;;7.10;99.90;;;;;;4919382;29;20052;-83
2021/12/29 12:48:32;;;;;;;24.13;9.27;;;7.20;99.90;;;;;;4919341;29;20055;-82